Time;durP1;ratioP1;P1;durP2;ratioP2;P2;SDS_P1;SDS_P2;PMS_P1;PMS_P2;Temp;Humidity;BMP_temperature;BMP_pressure;BME280_temperature;BME280_humidity;BME280_pressure;Samples;Min_cycle;Max_cycle;Signal;HPM_P1;HPM_P2
2022/08/31 00:04:37;;;;;;;;;;;;;;;29.55;32.39;100515.78;5063152;28;1961;-47
2022/08/31 00:07:03;;;;;;;;;;;;;;;29.55;32.15;100510.38;5068762;28;1160;-45
2022/08/31 00:09:29;;;;;;;;;;;;;;;29.57;32.38;100519.13;5073871;28;1076;-46
2022/08/31 00:11:55;;;;;;;;;;;;;;;29.52;32.55;100533.31;5069514;28;1147;-46
2022/08/31 00:14:20;;;;;;;;;;;;;;;29.55;32.37;100529.34;5074455;28;1057;-46
2022/08/31 00:16:46;;;;;;;;;;;;;;;29.53;32.39;100532.25;5072387;28;1498;-46
2022/08/31 00:19:11;;;;;;;;;;;;;;;29.57;32.05;100527.25;5076152;28;1016;-46
2022/08/31 00:21:38;;;;;;;;;;;;;;;29.47;32.50;100530.38;5074836;28;1111;-47
2022/08/31 00:24:03;;;;;;;;;;;;;;;29.46;32.45;100532.22;5077297;28;1965;-45
2022/08/31 00:26:28;;;;;;;;;;;;;;;29.41;32.58;100531.19;5077976;28;1132;-48
2022/08/31 00:28:53;;;;;;;;;;;;;;;29.48;32.40;100531.22;5067690;28;1151;-47
2022/08/31 00:31:19;;;;;;;;;;;;;;;29.45;32.30;100530.56;5070814;28;977;-45
2022/08/31 00:33:45;;;;;;;;;;;;;;;29.52;32.22;100535.16;5069682;28;1005;-46
2022/08/31 00:36:11;;;;;;;;;;;;;;;29.45;32.41;100533.28;5071557;28;988;-44
2022/08/31 00:38:37;;;;;;;;;;;;;;;29.49;32.18;100530.16;5072925;28;1052;-45
2022/08/31 00:41:02;;;;;;;;;;;;;;;29.42;32.23;100530.16;5071631;28;997;-46
2022/08/31 00:43:42;;;;;;;;;;;;;;;29.44;32.35;100531.63;5069442;28;1977;-44
2022/08/31 00:46:08;;;;;;;;;;;;;;;29.45;31.92;100536.00;5069510;28;970;-45
2022/08/31 00:48:34;;;;;;;;;;;;;;;29.50;32.02;100529.13;5071172;28;1072;-46
2022/08/31 00:50:59;;;;;;;;;;;;;;;29.51;32.13;100534.31;5054129;28;1103;-46
2022/08/31 00:53:24;;;;;;;;;;;;;;;29.46;32.20;100534.94;5072671;28;869;-45
2022/08/31 00:55:50;;;;;;;;;;;;;;;29.45;32.06;100524.31;5057755;28;1056;-44
2022/08/31 00:58:15;;;;;;;;;;;;;;;29.48;31.91;100532.03;5073728;28;1166;-45
2022/08/31 01:00:44;;;;;;;;;;;;;;;29.52;31.87;100532.47;5077012;28;1131;-46
2022/08/31 01:03:10;;;;;;;;;;;;;;;29.53;31.61;100532.25;5075528;28;1142;-44
2022/08/31 01:05:35;;;;;;;;;;;;;;;29.53;31.55;100534.16;5048861;28;1894;-45
2022/08/31 01:08:01;;;;;;;;;;;;;;;29.50;31.58;100538.09;5052159;28;1021;-45
2022/08/31 01:10:28;;;;;;;;;;;;;;;29.40;31.96;100530.34;5067734;28;1270;-46
2022/08/31 01:12:54;;;;;;;;;;;;;;;29.39;31.95;100535.97;5072709;28;1084;-45
2022/08/31 01:15:19;;;;;;;;;;;;;;;29.38;32.12;100532.41;5049792;28;1523;-46
2022/08/31 01:17:45;;;;;;;;;;;;;;;29.36;32.09;100520.97;5068678;28;1135;-45
2022/08/31 01:20:12;;;;;;;;;;;;;;;29.45;31.99;100518.91;5071878;28;1159;-48
2022/08/31 01:22:41;;;;;;;;;;;;;;;29.46;32.11;100523.28;5057771;28;1116;-48
2022/08/31 01:25:06;;;;;;;;;;;;;;;29.37;32.18;100527.22;5074595;28;1949;-46
2022/08/31 01:27:32;;;;;;;;;;;;;;;29.29;32.09;100522.81;5074219;28;1064;-46
2022/08/31 01:29:58;;;;;;;;;;;;;;;29.43;32.06;100529.09;5077099;28;1202;-47
2022/08/31 01:32:23;;;;;;;;;;;;;;;29.41;31.34;100526.59;5058100;28;950;-44
2022/08/31 01:34:49;;;;;;;;;;;;;;;29.36;31.71;100518.25;5071029;28;1008;-44
2022/08/31 01:37:14;;;;;;;;;;;;;;;29.43;31.63;100512.84;5068210;28;1013;-46
2022/08/31 01:39:39;;;;;;;;;;;;;;;29.48;31.98;100523.09;5069030;28;1016;-47
2022/08/31 01:42:05;;;;;;;;;;;;;;;29.39;31.56;100517.84;5070045;28;989;-47
2022/08/31 01:44:30;;;;;;;;;;;;;;;29.42;31.83;100517.44;5065207;28;1897;-47
2022/08/31 01:46:55;;;;;;;;;;;;;;;29.45;31.69;100521.59;5068978;28;981;-46
2022/08/31 01:49:21;;;;;;;;;;;;;;;29.44;31.89;100519.94;5070205;28;1056;-48
2022/08/31 01:51:46;;;;;;;;;;;;;;;29.39;32.15;100527.84;5066791;28;1029;-47
2022/08/31 01:54:12;;;;;;;;;;;;;;;29.43;32.01;100520.97;5069640;28;1024;-47
2022/08/31 01:56:38;;;;;;;;;;;;;;;29.43;31.93;100523.69;5070294;28;1226;-46
2022/08/31 01:59:04;;;;;;;;;;;;;;;29.49;32.12;100520.16;5074200;28;996;-47
2022/08/31 02:01:31;;;;;;;;;;;;;;;29.53;31.95;100520.59;5072687;28;1120;-45
2022/08/31 02:03:56;;;;;;;;;;;;;;;29.48;31.74;100512.25;5074074;28;1907;-45
2022/08/31 02:06:21;;;;;;;;;;;;;;;29.56;31.77;100517.47;5075969;28;1179;-47
2022/08/31 02:08:46;;;;;;;;;;;;;;;29.50;31.65;100516.41;5069961;28;969;-45
2022/08/31 02:11:12;;;;;;;;;;;;;;;29.50;31.99;100518.28;5070076;28;1017;-46
2022/08/31 02:13:37;;;;;;;;;;;;;;;28.88;31.79;100414.31;5065973;28;1258;-45
2022/08/31 02:16:02;;;;;;;;;;;;;;;29.48;31.75;100510.34;5068163;28;993;-45
2022/08/31 02:18:28;;;;;;;;;;;;;;;29.47;31.75;100514.13;5068630;28;1012;-50
2022/08/31 02:20:53;;;;;;;;;;;;;;;29.45;31.75;100508.06;5054918;28;1013;-48
2022/08/31 02:23:18;;;;;;;;;;;;;;;29.14;30.94;100504.00;5072092;28;1902;-47
2022/08/31 02:25:44;;;;;;;;;;;;;;;28.94;32.30;100512.88;5073609;28;1104;-47
2022/08/31 02:28:12;;;;;;;;;;;;;;;29.33;32.19;100519.50;5070970;28;1079;-44
2022/08/31 02:30:37;;;;;;;;;;;;;;;29.41;31.68;100512.22;5073983;28;1151;-47
2022/08/31 02:33:03;;;;;;;;;;;;;;;29.50;31.65;100521.81;5076097;28;1040;-49
2022/08/31 02:35:28;;;;;;;;;;;;;;;29.48;31.50;100517.66;5066407;28;1028;-47
2022/08/31 02:37:53;;;;;;;;;;;;;;;29.50;31.76;100515.56;5068339;28;1044;-47
2022/08/31 02:40:19;;;;;;;;;;;;;;;29.46;31.64;100515.16;5069302;28;981;-50
2022/08/31 02:42:44;;;;;;;;;;;;;;;29.45;31.87;100514.31;5065497;28;1021;-46
2022/08/31 02:45:10;;;;;;;;;;;;;;;29.47;31.94;100511.41;5066358;28;1902;-46
2022/08/31 02:47:35;;;;;;;;;;;;;;;29.48;31.63;100502.22;5069223;28;980;-47
2022/08/31 02:50:01;;;;;;;;;;;;;;;29.46;31.94;100504.31;5067282;28;1012;-47
2022/08/31 02:52:26;;;;;;;;;;;;;;;29.46;31.98;100515.16;5069022;28;1091;-44
2022/08/31 02:54:52;;;;;;;;;;;;;;;29.53;31.81;100509.75;5069184;28;1154;-45
2022/08/31 02:57:17;;;;;;;;;;;;;;;29.50;31.71;100505.56;5072982;28;1044;-46
2022/08/31 02:59:42;;;;;;;;;;;;;;;29.49;32.08;100497.66;5071785;28;1135;-45
2022/08/31 03:02:07;;;;;;;;;;;;;;;29.51;31.86;100501.81;5074497;28;1013;-46
2022/08/31 03:04:33;;;;;;;;;;;;;;;29.48;32.02;100499.50;5069836;28;1957;-46
2022/08/31 03:06:58;;;;;;;;;;;;;;;29.50;32.14;100494.72;5075752;28;977;-46
2022/08/31 03:09:23;;;;;;;;;;;;;;;29.41;32.20;100495.97;5069306;28;945;-46
2022/08/31 03:11:49;;;;;;;;;;;;;;;29.48;32.08;100504.94;5065052;28;1185;-46
2022/08/31 03:14:14;;;;;;;;;;;;;;;29.13;32.47;100497.75;5074256;28;1075;-43
2022/08/31 03:16:39;;;;;;;;;;;;;;;28.26;36.12;100500.78;5068694;28;1162;-45
2022/08/31 03:19:05;;;;;;;;;;;;;;;28.05;38.64;100502.47;5073709;28;1016;-41
2022/08/31 03:21:31;;;;;;;;;;;;;;;27.95;39.32;100513.63;5074274;28;1021;-43
2022/08/31 03:23:57;;;;;;;;;;;;;;;27.87;40.91;100507.34;5074615;28;1887;-41
2022/08/31 03:26:22;;;;;;;;;;;;;;;27.89;40.55;100509.84;5076714;28;1004;-44
2022/08/31 03:28:47;;;;;;;;;;;;;;;27.85;43.43;100528.31;5075553;28;1203;-43
2022/08/31 03:31:13;;;;;;;;;;;;;;;27.80;46.19;100521.81;5078016;28;1021;-43
2022/08/31 03:33:38;;;;;;;;;;;;;;;27.67;45.88;100520.63;5078350;28;1155;-41
2022/08/31 03:36:04;;;;;;;;;;;;;;;27.65;45.83;100517.28;5072949;28;1013;-40
2022/08/31 03:38:29;;;;;;;;;;;;;;;27.65;46.08;100517.28;5071776;28;1444;-40
2022/08/31 03:40:55;;;;;;;;;;;;;;;28.06;42.52;100513.09;5068801;28;1045;-42
2022/08/31 03:43:20;;;;;;;;;;;;;;;27.96;45.23;100513.44;5068001;28;1906;-43
2022/08/31 03:45:46;;;;;;;;;;;;;;;27.68;46.96;100514.22;5073178;28;942;-41
2022/08/31 03:48:11;;;;;;;;;;;;;;;27.51;44.44;100511.72;5067823;28;957;-41
2022/08/31 03:50:36;;;;;;;;;;;;;;;27.50;44.30;100518.19;5074082;28;1153;-43
2022/08/31 03:53:05;;;;;;;;;;;;;;;26.84;45.26;100514.44;5061058;28;1405;-42
2022/08/31 03:55:33;;;;;;;;;;;;;;;26.91;40.65;100514.53;5063026;28;1013;-41
2022/08/31 03:57:58;;;;;;;;;;;;;;;26.81;48.65;100514.00;5067318;28;1215;-41
2022/08/31 04:00:24;;;;;;;;;;;;;;;27.25;44.19;100510.41;5058933;28;1244;-40
2022/08/31 04:02:49;;;;;;;;;;;;;;;27.34;45.03;100504.91;5072082;28;1017;-42
2022/08/31 04:05:15;;;;;;;;;;;;;;;27.30;43.85;100501.75;5066126;28;1886;-42
2022/08/31 04:07:40;;;;;;;;;;;;;;;27.30;42.11;100511.69;5076836;28;1052;-42
2022/08/31 04:10:06;;;;;;;;;;;;;;;27.26;42.70;100513.94;5075526;28;1165;-41
2022/08/31 04:12:31;;;;;;;;;;;;;;;27.20;41.00;100512.00;5078147;28;1036;-39
2022/08/31 04:14:56;;;;;;;;;;;;;;;26.11;46.67;100506.91;5068407;28;937;-47
2022/08/31 04:17:22;;;;;;;;;;;;;;;26.21;49.25;100499.38;5069703;28;977;-44
2022/08/31 04:20:03;;;;;;;;;;;;;;;25.62;47.05;100498.16;5022649;27;1535420;-37
2022/08/31 04:22:29;;;;;;;;;;;;;;;24.64;48.62;100507.34;5055521;28;1052;-36
2022/08/31 04:24:54;;;;;;;;;;;;;;;23.78;49.24;100519.28;5073482;28;985;-37
2022/08/31 04:27:19;;;;;;;;;;;;;;;23.34;49.03;100524.69;5074032;28;1030;-36
2022/08/31 04:29:44;;;;;;;;;;;;;;;23.13;49.04;100527.81;5073093;28;962;-40
2022/08/31 04:32:10;;;;;;;;;;;;;;;22.97;48.68;100525.91;5073342;28;1077;-37
2022/08/31 04:34:35;;;;;;;;;;;;;;;22.76;48.39;100524.44;5073276;28;1060;-39
2022/08/31 04:37:00;;;;;;;;;;;;;;;22.38;48.54;100525.53;5073171;28;1104;-38
2022/08/31 04:39:26;;;;;;;;;;;;;;;22.12;48.82;100528.16;5073176;28;1965;-38
2022/08/31 04:41:51;;;;;;;;;;;;;;;21.87;49.19;100514.56;5072393;28;1025;-40
2022/08/31 04:44:16;;;;;;;;;;;;;;;21.60;49.89;100513.59;5072534;28;1318;-49
2022/08/31 04:46:42;;;;;;;;;;;;;;;21.70;49.82;100516.19;5072802;28;1247;-50
2022/08/31 04:49:08;;;;;;;;;;;;;;;23.12;47.74;100504.66;5072709;28;1270;-52
2022/08/31 04:51:34;;;;;;;;;;;;;;;24.79;44.17;100502.91;5072834;28;1246;-55
2022/08/31 04:54:00;;;;;;;;;;;;;;;25.52;42.00;100507.31;5072513;28;970;-50
2022/08/31 04:56:26;;;;;;;;;;;;;;;24.85;42.21;100492.47;5073229;28;1097;-53
2022/08/31 04:58:52;;;;;;;;;;;;;;;23.18;44.84;100503.16;5066493;28;1953;-46
2022/08/31 05:01:19;;;;;;;;;;;;;;;22.35;48.37;100488.31;5072726;28;1048;-45
2022/08/31 05:03:44;;;;;;;;;;;;;;;22.07;51.50;100491.09;5072983;28;1068;-47
2022/08/31 05:06:13;;;;;;;;;;;;;;;22.02;55.04;100496.94;5071157;28;1523;-46
2022/08/31 05:08:38;;;;;;;;;;;;;;;22.85;57.05;100494.00;5072625;28;1001;-46
2022/08/31 05:11:10;;;;;;;;;;;;;;;22.21;54.61;100504.94;5068043;28;1741;-48
2022/08/31 05:13:36;;;;;;;;;;;;;;;21.92;54.35;100504.22;5064601;28;1196;-22
2022/08/31 05:16:03;;;;;;;;;;;;;;;21.55;54.04;100502.50;5072610;28;886;-23
2022/08/31 05:18:28;;;;;;;;;;;;;;;21.49;55.10;100507.47;5071963;28;1893;-23
2022/08/31 05:20:53;;;;;;;;;;;;;;;21.37;55.16;100506.00;5071629;28;1009;-26
2022/08/31 05:23:19;;;;;;;;;;;;;;;21.52;57.37;100506.34;5069281;28;1479;-22
2022/08/31 05:25:44;;;;;;;;;;;;;;;23.62;50.37;100509.34;5072269;28;997;-23
2022/08/31 05:28:09;;;;;;;;;;;;;;;24.86;47.75;100510.31;5069399;28;1158;-23
2022/08/31 05:30:35;;;;;;;;;;;;;;;25.60;46.52;100511.81;5063432;28;983;-23
2022/08/31 05:33:00;;;;;;;;;;;;;;;25.83;44.90;100505.59;5054784;28;814;-22
2022/08/31 05:35:25;;;;;;;;;;;;;;;26.06;47.18;100498.53;5053401;28;1152;-23
2022/08/31 05:37:51;;;;;;;;;;;;;;;25.19;46.02;100504.81;5058988;28;1902;-22
2022/08/31 05:40:16;;;;;;;;;;;;;;;23.22;49.09;100499.16;5040855;28;1034;-23
2022/08/31 05:42:41;;;;;;;;;;;;;;;22.17;53.36;100499.06;5058706;28;1289;-29
2022/08/31 05:45:07;;;;;;;;;;;;;;;21.89;52.79;100491.97;5055890;28;1269;-29
2022/08/31 05:47:32;;;;;;;;;;;;;;;21.63;52.84;100497.22;5057454;28;1053;-30
2022/08/31 05:49:57;;;;;;;;;;;;;;;21.57;53.00;100493.31;5050987;28;1183;-31
2022/08/31 05:52:23;;;;;;;;;;;;;;;21.49;53.29;100493.22;5057407;28;1032;-32
2022/08/31 05:54:48;;;;;;;;;;;;;;;23.14;51.76;100494.59;5052345;28;926;-37
2022/08/31 05:57:13;;;;;;;;;;;;;;;24.78;50.13;100500.38;5058397;28;969;-40
2022/08/31 05:59:39;;;;;;;;;;;;;;;25.85;46.31;100506.28;5058177;28;1902;-40
2022/08/31 06:02:04;;;;;;;;;;;;;;;26.45;44.53;100505.59;5054038;28;1241;-37
2022/08/31 06:04:29;;;;;;;;;;;;;;;25.71;43.66;100501.66;5056990;28;986;-38
2022/08/31 06:06:54;;;;;;;;;;;;;;;23.45;46.83;100512.84;5052393;28;1166;-38
2022/08/31 06:09:20;;;;;;;;;;;;;;;22.41;49.36;100510.09;5056592;28;1228;-39
2022/08/31 06:11:45;;;;;;;;;;;;;;;21.89;50.07;100512.56;5058180;28;985;-38
2022/08/31 06:14:11;;;;;;;;;;;;;;;21.57;49.99;100511.22;5058060;28;989;-39
2022/08/31 06:16:36;;;;;;;;;;;;;;;21.58;49.53;100504.88;5054846;28;1041;-36
2022/08/31 06:19:05;;;;;;;;;;;;;;;21.52;50.05;100504.47;5057142;28;1894;-38
2022/08/31 06:21:32;;;;;;;;;;;;;;;21.75;51.80;100504.03;5057957;28;1240;-38
2022/08/31 06:23:58;;;;;;;;;;;;;;;23.64;46.64;100510.03;5051694;28;1172;-39
2022/08/31 06:26:24;;;;;;;;;;;;;;;25.19;43.25;100513.72;5054987;28;967;-38
2022/08/31 06:28:52;;;;;;;;;;;;;;;25.37;38.43;100515.31;5055376;28;1192;-38
2022/08/31 06:31:23;;;;;;;;;;;;;;;25.33;38.22;100515.81;5049791;28;1033;-38
2022/08/31 06:33:48;;;;;;;;;;;;;;;23.56;42.32;100505.47;5054524;28;1455;-39
2022/08/31 06:36:17;;;;;;;;;;;;;;;22.28;44.96;100506.00;5040155;28;1003;-36
2022/08/31 06:38:43;;;;;;;;;;;;;;;21.86;46.13;100507.50;5058086;28;1910;-38
2022/08/31 06:41:13;;;;;;;;;;;;;;;21.49;47.23;100496.75;5052172;28;1497;-25
2022/08/31 06:43:38;;;;;;;;;;;;;;;21.30;49.48;100497.72;5052181;28;914;-24
2022/08/31 06:46:04;;;;;;;;;;;;;;;21.49;52.50;100488.72;5056537;28;1501;-24
2022/08/31 06:48:29;;;;;;;;;;;;;;;23.39;46.83;100485.78;5057722;28;994;-24
2022/08/31 06:50:55;;;;;;;;;;;;;;;24.73;44.03;100495.53;5057465;28;961;-24
2022/08/31 06:53:21;;;;;;;;;;;;;;;25.42;42.63;100493.25;5057216;28;966;-24
2022/08/31 06:55:47;;;;;;;;;;;;;;;25.82;42.22;100505.78;5055637;28;1200;-24
2022/08/31 06:58:13;;;;;;;;;;;;;;;23.48;46.15;100507.16;5057434;28;1902;-24
2022/08/31 07:00:38;;;;;;;;;;;;;;;22.26;49.13;100506.19;5056862;28;1176;-24
2022/08/31 07:03:21;;;;;;;;;;;;;;;21.74;50.64;100518.41;5055847;28;1405;-26
2022/08/31 07:05:47;;;;;;;;;;;;;;;21.44;51.39;100519.63;5056464;28;1121;-24
2022/08/31 07:08:12;;;;;;;;;;;;;;;21.14;52.20;100523.28;5054132;28;1215;-23
2022/08/31 07:10:37;;;;;;;;;;;;;;;21.10;52.82;100521.06;5050590;28;1551;-23
2022/08/31 07:13:03;;;;;;;;;;;;;;;21.36;55.58;100520.34;5056116;28;1413;-23
2022/08/31 07:15:28;;;;;;;;;;;;;;;23.44;48.62;100535.31;5055835;28;1560;-23
2022/08/31 07:17:53;;;;;;;;;;;;;;;23.06;46.24;100527.59;5055677;28;1901;-25
2022/08/31 07:20:19;;;;;;;;;;;;;;;21.72;48.81;100528.44;5056339;28;1038;-24
2022/08/31 07:22:44;;;;;;;;;;;;;;;21.00;49.73;100518.44;5056035;28;1059;-23
2022/08/31 07:25:09;;;;;;;;;;;;;;;20.84;50.67;100517.19;5056995;28;986;-25
2022/08/31 07:27:35;;;;;;;;;;;;;;;20.80;51.21;100510.47;5052310;28;1144;-23
2022/08/31 07:30:01;;;;;;;;;;;;;;;20.84;51.57;100508.31;5052816;28;1313;-23
2022/08/31 07:32:26;;;;;;;;;;;;;;;22.52;49.45;100515.22;5054302;28;1217;-23
2022/08/31 07:34:51;;;;;;;;;;;;;;;24.09;45.57;100519.47;5056514;28;1014;-23
2022/08/31 07:42:45;;;;;;;;;;;;;;;21.57;49.16;100509.38;5055554;28;1309;-23
2022/08/31 07:45:20;;;;;;;;;;;;;;;21.12;49.36;100503.03;5054606;28;1360;-23
2022/08/31 07:47:47;;;;;;;;;;;;;;;20.95;51.53;100505.50;5049100;28;1317;-23
2022/08/31 07:50:13;;;;;;;;;;;;;;;21.00;52.10;100515.75;5056217;28;1003;-23
2022/08/31 07:52:43;;;;;;;;;;;;;;;20.97;52.14;100514.19;5055336;28;1442;-23
2022/08/31 07:55:10;;;;;;;;;;;;;;;20.95;52.56;100516.22;5050118;28;1575;-23
2022/08/31 07:57:36;;;;;;;;;;;;;;;21.32;55.00;100506.44;5055974;28;1044;-23
2022/08/31 08:00:07;;;;;;;;;;;;;;;23.35;48.74;100504.91;5055036;28;1906;-23
2022/08/31 08:02:38;;;;;;;;;;;;;;;22.99;47.67;100492.53;5054215;28;1320;-23
2022/08/31 08:05:06;;;;;;;;;;;;;;;21.69;50.68;100477.06;5056385;28;1092;-23
2022/08/31 08:07:32;;;;;;;;;;;;;;;21.34;52.04;100472.34;5055550;28;974;-23
2022/08/31 08:09:58;;;;;;;;;;;;;;;21.14;52.59;100471.63;5055312;28;1222;-23
2022/08/31 08:12:23;;;;;;;;;;;;;;;21.09;53.06;100460.53;5058978;28;1286;-23
2022/08/31 08:14:50;;;;;;;;;;;;;;;21.03;53.40;100464.66;5054823;28;954;-23
2022/08/31 08:17:17;;;;;;;;;;;;;;;21.33;55.94;100465.31;5055443;28;1457;-24
2022/08/31 08:19:42;;;;;;;;;;;;;;;23.38;49.73;100471.53;5056014;28;1953;-23
2022/08/31 08:22:08;;;;;;;;;;;;;;;22.33;50.28;100470.72;5054674;28;1132;-27
2022/08/31 08:24:33;;;;;;;;;;;;;;;21.56;51.44;100482.75;5055900;28;1493;-29
2022/08/31 08:26:58;;;;;;;;;;;;;;;21.20;53.07;100480.88;5053957;28;1176;-28
2022/08/31 08:29:24;;;;;;;;;;;;;;;21.02;53.16;100471.81;5055620;28;977;-29
2022/08/31 08:31:51;;;;;;;;;;;;;;;20.97;52.78;100482.13;5053138;28;1277;-29
2022/08/31 08:34:18;;;;;;;;;;;;;;;20.94;53.22;100485.09;5056183;28;994;-27
2022/08/31 08:36:44;;;;;;;;;;;;;;;21.17;54.54;100492.72;5055170;28;1150;-32
2022/08/31 08:39:10;;;;;;;;;;;;;;;23.04;50.01;100500.09;5052006;28;1903;-27
2022/08/31 08:41:35;;;;;;;;;;;;;;;22.55;49.34;100497.97;5055257;28;1144;-28
2022/08/31 08:44:01;;;;;;;;;;;;;;;21.67;50.74;100490.56;5051019;28;1171;-27
2022/08/31 08:46:46;;;;;;;;;;;;;;;21.32;51.49;100492.22;5054904;28;1167;-29
2022/08/31 08:49:19;;;;;;;;;;;;;;;21.12;52.10;100485.13;5034115;28;1263;-28
2022/08/31 08:51:44;;;;;;;;;;;;;;;20.99;51.74;100490.84;5033892;28;1255;-27
2022/08/31 08:54:11;;;;;;;;;;;;;;;20.89;52.48;100490.00;5035189;28;1188;-31
2022/08/31 08:56:40;;;;;;;;;;;;;;;21.49;54.58;100491.41;5048808;28;1238;-28
2022/08/31 08:59:06;;;;;;;;;;;;;;;23.52;47.62;100485.34;5032669;28;1902;-30
2022/08/31 09:01:34;;;;;;;;;;;;;;;22.07;49.43;100488.44;5049136;28;1295;-33
2022/08/31 09:04:05;;;;;;;;;;;;;;;21.50;50.85;100482.38;5030114;28;1250;-33
2022/08/31 09:06:39;;;;;;;;;;;;;;;21.21;51.93;100478.06;5053946;28;1216;-28
2022/08/31 09:09:10;;;;;;;;;;;;;;;20.92;52.71;100470.97;5059278;28;902;-29
2022/08/31 09:11:45;;;;;;;;;;;;;;;21.03;53.36;100475.34;5057432;28;1215;-28
2022/08/31 09:14:29;;;;;;;;;;;;;;;21.15;53.46;100467.97;5056546;28;1350;-28
2022/08/31 09:17:02;;;;;;;;;;;;;;;23.20;50.14;100468.97;5054340;28;1170;-30
2022/08/31 09:19:27;;;;;;;;;;;;;;;22.53;49.88;100457.09;5058593;28;1898;-30
2022/08/31 09:22:12;;;;;;;;;;;;;;;21.68;50.74;100456.63;5043993;28;1287;-30
2022/08/31 09:24:38;;;;;;;;;;;;;;;21.31;52.55;100453.91;5059187;28;1128;-28
2022/08/31 09:27:30;;;;;;;;;;;;;;;21.15;53.17;100454.59;5057802;28;1281;-29
2022/08/31 09:29:54;;;;;;;;;;;;;;;21.25;53.20;100446.50;5050101;28;1536;-28
2022/08/31 09:32:26;;;;;;;;;;;;;;;21.12;53.03;100449.56;5053532;28;858;-31
2022/08/31 09:34:52;;;;;;;;;;;;;;;20.96;53.54;100448.34;5053731;28;958;-29
2022/08/31 09:37:22;;;;;;;;;;;;;;;20.93;53.91;100445.97;5055019;28;922;-30
2022/08/31 09:39:48;;;;;;;;;;;;;;;20.97;54.15;100450.03;5055639;28;1965;-30
2022/08/31 09:42:17;;;;;;;;;;;;;;;20.90;54.37;100449.75;5056242;28;1297;-31
2022/08/31 09:44:42;;;;;;;;;;;;;;;22.35;53.59;100448.13;5056030;28;1164;-29
2022/08/31 09:47:41;;;;;;;;;;;;;;;23.64;49.28;100443.72;5039194;28;1299;-28
2022/08/31 09:50:08;;;;;;;;;;;;;;;22.13;49.98;100436.94;5026119;28;1025;-28
2022/08/31 09:55:20;;;;;;;;;;;;;;;21.22;52.84;100431.59;5035505;28;1203;-32
2022/08/31 09:57:53;;;;;;;;;;;;;;;21.25;52.91;100430.47;5057733;28;926;-31
2022/08/31 10:00:28;;;;;;;;;;;;;;;21.36;52.93;100419.53;5054367;28;1394;-31
2022/08/31 10:02:57;;;;;;;;;;;;;;;21.33;53.24;100414.50;5053672;28;933;-28
2022/08/31 10:05:30;;;;;;;;;;;;;;;21.98;55.34;100425.09;5034484;28;1213;-28
2022/08/31 10:07:56;;;;;;;;;;;;;;;24.11;47.51;100427.94;5054907;28;981;-28
2022/08/31 10:10:26;;;;;;;;;;;;;;;22.57;49.55;100434.34;5056036;28;1045;-29
2022/08/31 10:12:54;;;;;;;;;;;;;;;21.82;50.10;100429.31;5036193;28;1120;-30
2022/08/31 10:15:19;;;;;;;;;;;;;;;21.49;51.52;100427.16;5055587;28;1227;-30
2022/08/31 10:17:53;;;;;;;;;;;;;;;21.15;51.86;100428.66;5055327;28;1053;-30
2022/08/31 10:20:29;;;;;;;;;;;;;;;21.01;52.44;100426.50;5051732;28;1271;-28
2022/08/31 10:23:05;;;;;;;;;;;;;;;20.88;53.33;100419.66;5040081;28;1116;-31
2022/08/31 10:25:32;;;;;;;;;;;;;;;20.83;53.90;100421.09;5052709;28;1144;-29
2022/08/31 10:28:11;;;;;;;;;;;;;;;22.66;51.11;100419.97;5035991;28;1002;-30
2022/08/31 10:30:42;;;;;;;;;;;;;;;22.98;48.39;100412.22;5030583;28;1129;-29
2022/08/31 10:33:15;;;;;;;;;;;;;;;21.62;51.31;100404.56;5038115;28;1099;-29
2022/08/31 10:35:44;;;;;;;;;;;;;;;21.13;52.90;100395.91;5039290;28;935;-28
2022/08/31 10:38:24;;;;;;;;;;;;;;;21.01;53.62;100395.28;5053532;28;1906;-29
2022/08/31 10:40:53;;;;;;;;;;;;;;;20.77;54.18;100393.94;5055261;28;1144;-32
2022/08/31 10:43:20;;;;;;;;;;;;;;;20.84;54.22;100386.19;5039275;28;1089;-29
2022/08/31 10:45:48;;;;;;;;;;;;;;;21.90;54.30;100391.06;5057607;28;824;-31
2022/08/31 10:48:14;;;;;;;;;;;;;;;23.78;49.38;100404.63;5053528;28;1421;-31
2022/08/31 10:50:39;;;;;;;;;;;;;;;22.08;50.01;100406.25;5038008;28;1125;-30
2022/08/31 10:53:05;;;;;;;;;;;;;;;21.50;50.79;100401.25;5053703;28;1319;-28
2022/08/31 10:55:36;;;;;;;;;;;;;;;21.81;52.13;100402.69;5056015;28;1203;-29
2022/08/31 10:58:04;;;;;;;;;;;;;;;22.13;52.14;100402.09;5054252;28;1955;-30
2022/08/31 11:00:55;;;;;;;;;;;;;;;22.06;51.80;100406.41;5054676;28;1017;-30
2022/08/31 11:03:24;;;;;;;;;;;;;;;22.13;51.91;100407.47;5016315;28;1364;-29
2022/08/31 11:06:08;;;;;;;;;;;;;;;22.66;51.01;100408.41;5051527;28;1057;-28
2022/08/31 11:08:56;;;;;;;;;;;;;;;23.09;50.39;100408.38;5051288;28;1206;-29
2022/08/31 11:11:34;;;;;;;;;;;;;;;22.89;50.28;100403.31;5053228;28;987;-31
2022/08/31 11:14:15;;;;;;;;;;;;;;;22.92;50.66;100399.47;5048772;28;1056;-29
2022/08/31 11:16:50;;;;;;;;;;;;;;;23.56;50.98;100409.66;5054351;28;1175;-29
2022/08/31 11:19:15;;;;;;;;;;;;;;;25.12;45.09;100401.56;5054841;28;1935;-31
2022/08/31 11:21:50;;;;;;;;;;;;;;;24.23;51.38;100390.81;5054419;28;1421;-29
2022/08/31 11:24:28;;;;;;;;;;;;;;;24.19;51.65;100390.31;5055300;28;1044;-30
2022/08/31 11:27:13;;;;;;;;;;;;;;;24.42;51.93;100392.25;5048810;28;986;-29
2022/08/31 11:29:49;;;;;;;;;;;;;;;23.76;53.40;100373.56;5045483;28;1049;-29
2022/08/31 11:32:19;;;;;;;;;;;;;;;24.98;50.90;100382.47;5034383;28;1112;-32
2022/08/31 11:34:55;;;;;;;;;;;;;;;25.98;50.62;100379.00;5032160;28;1295;-31
2022/08/31 11:37:39;;;;;;;;;;;;;;;24.82;51.15;100378.81;5052843;28;1061;-29
2022/08/31 11:40:07;;;;;;;;;;;;;;;24.58;52.39;100367.16;5049449;28;1898;-28
2022/08/31 11:42:33;;;;;;;;;;;;;;;25.11;51.70;100364.91;5036776;28;1160;-30
2022/08/31 11:45:04;;;;;;;;;;;;;;;24.78;51.45;100357.81;5053802;28;1060;-29
2022/08/31 11:47:34;;;;;;;;;;;;;;;24.75;53.20;100355.47;5052838;28;977;-29
2022/08/31 11:50:08;;;;;;;;;;;;;;;25.34;52.56;100369.44;5053019;28;962;-30
2022/08/31 11:52:37;;;;;;;;;;;;;;;26.31;48.27;100360.78;5055243;28;1154;-31
2022/08/31 11:55:05;;;;;;;;;;;;;;;25.61;50.78;100364.50;5055266;28;977;-30
2022/08/31 11:57:30;;;;;;;;;;;;;;;24.84;52.71;100357.09;5056144;28;1061;-30
2022/08/31 11:59:56;;;;;;;;;;;;;;;25.02;52.47;100353.34;5038496;28;1898;-29
2022/08/31 12:02:21;;;;;;;;;;;;;;;24.69;51.71;100354.34;5038411;28;1001;-30
2022/08/31 12:04:56;;;;;;;;;;;;;;;24.00;52.48;100361.97;5048429;28;1036;-30
2022/08/31 12:07:25;;;;;;;;;;;;;;;24.06;51.67;100353.22;5049274;28;1127;-29
2022/08/31 12:09:50;;;;;;;;;;;;;;;23.39;51.22;100351.59;5053281;28;1001;-32
2022/08/31 12:12:18;;;;;;;;;;;;;;;25.07;47.84;100351.78;5052254;28;1032;-30
2022/08/31 12:15:06;;;;;;;;;;;;;;;25.13;49.67;100350.22;5053479;28;1010;-29
2022/08/31 12:17:34;;;;;;;;;;;;;;;24.41;50.43;100350.25;5049127;28;965;-31
2022/08/31 12:20:06;;;;;;;;;;;;;;;24.56;51.84;100350.38;5054130;28;1988;-29
2022/08/31 12:25:24;;;;;;;;;;;;;;;23.77;50.78;100348.41;5045163;28;934;-29
2022/08/31 12:27:52;;;;;;;;;;;;;;;25.48;46.12;100347.09;5031305;28;1065;-31
2022/08/31 12:30:24;;;;;;;;;;;;;;;25.34;50.87;100356.78;5053522;28;989;-30
2022/08/31 12:33:19;;;;;;;;;;;;;;;25.72;49.58;100352.47;5050275;28;977;-29
2022/08/31 12:35:48;;;;;;;;;;;;;;;24.62;47.09;100340.78;5027575;28;1506;-31
2022/08/31 12:38:20;;;;;;;;;;;;;;;25.00;49.46;100349.97;5035953;28;1897;-30
2022/08/31 12:40:53;;;;;;;;;;;;;;;25.58;49.14;100352.22;5050472;28;1348;-31
2022/08/31 12:43:25;;;;;;;;;;;;;;;25.04;48.75;100340.56;5055757;28;1324;-31
2022/08/31 12:45:56;;;;;;;;;;;;;;;25.41;49.82;100343.44;5054660;28;1064;-30
2022/08/31 12:48:40;;;;;;;;;;;;;;;25.27;49.38;100350.47;5056186;28;1297;-30
2022/08/31 12:51:08;;;;;;;;;;;;;;;24.32;49.05;100344.06;5056110;28;1190;-31
2022/08/31 12:53:36;;;;;;;;;;;;;;;25.03;50.93;100338.88;5051572;28;973;-31
2022/08/31 12:56:17;;;;;;;;;;;;;;;25.25;49.80;100344.44;5058288;28;1504;-31
2022/08/31 12:59:21;;;;;;;;;;;;;;;24.98;50.00;100343.94;5037057;28;1886;-31
2022/08/31 13:01:47;;;;;;;;;;;;;;;24.75;48.64;100340.19;4958896;29;1158;-31
2022/08/31 13:04:13;;;;;;;;;;;;;;;23.88;48.64;100329.25;4953992;29;1051;-30
2022/08/31 13:06:40;;;;;;;;;;;;;;;24.33;50.26;100339.53;4985516;28;1031;-32